createdAt,value
2019-01-22T00:00:16.999Z,-4.50
2019-01-22T00:02:45.530Z,-4.50
2019-01-22T00:05:14.256Z,-4.50
2019-01-22T00:07:42.822Z,-4.50
2019-01-22T00:10:11.895Z,-4.50
2019-01-22T00:12:40.427Z,-4.40
2019-01-22T00:15:13.393Z,-4.40
2019-01-22T00:17:42.255Z,-4.50
2019-01-22T00:20:12.749Z,-4.50
2019-01-22T00:22:41.171Z,-4.50
2019-01-22T00:25:14.474Z,-4.40
2019-01-22T00:27:42.925Z,-4.40
2019-01-22T00:30:17.372Z,-4.40
2019-01-22T00:32:45.877Z,-4.30
2019-01-22T00:35:14.362Z,-4.50
2019-01-22T00:37:42.811Z,-4.50
2019-01-22T00:40:16.779Z,-4.50
2019-01-22T00:42:46.354Z,-4.50
2019-01-22T00:45:15.611Z,-4.40
2019-01-22T00:47:44.046Z,-4.40
2019-01-22T00:50:15.928Z,-4.40
2019-01-22T00:52:44.450Z,-4.40
2019-01-22T00:55:16.562Z,-4.40
2019-01-22T00:57:45.096Z,-4.30
2019-01-22T01:00:22.737Z,-4.30
2019-01-22T01:02:51.187Z,-4.40
2019-01-22T01:05:19.681Z,-4.30
2019-01-22T01:07:48.443Z,-4.30
2019-01-22T01:10:17.403Z,-4.40
2019-01-22T01:12:45.813Z,-4.40
2019-01-22T01:15:18.359Z,-4.40
2019-01-22T01:17:46.815Z,-4.40
2019-01-22T01:20:17.983Z,-4.40
2019-01-22T01:22:46.586Z,-4.40
2019-01-22T01:25:17.675Z,-4.40
2019-01-22T01:27:46.362Z,-4.40
2019-01-22T01:30:20.772Z,-4.40
2019-01-22T01:32:49.658Z,-4.40
2019-01-22T01:35:18.107Z,-4.50
2019-01-22T01:37:46.531Z,-4.50
2019-01-22T01:40:17.379Z,-4.50
2019-01-22T01:42:45.882Z,-4.50
2019-01-22T01:45:19.110Z,-4.40
2019-01-22T01:47:47.798Z,-4.40
2019-01-22T01:50:17.669Z,-4.40
2019-01-22T01:52:46.090Z,-4.40
2019-01-22T01:55:16.718Z,-4.50
2019-01-22T01:57:45.174Z,-4.50
2019-01-22T02:00:23.240Z,-4.50
2019-01-22T02:02:51.754Z,-4.50
2019-01-22T02:05:20.496Z,-4.50
2019-01-22T02:07:49.003Z,-4.50
2019-01-22T02:10:22.303Z,-4.50
2019-01-22T02:12:57.486Z,-4.50
2019-01-22T02:15:46.983Z,-4.50
2019-01-22T02:18:39.712Z,-4.50
2019-01-22T02:21:25.904Z,-4.50
2019-01-22T02:24:06.446Z,-4.50
2019-01-22T02:27:14.527Z,-4.40
2019-01-22T02:29:57.029Z,-4.40
2019-01-22T02:32:47.946Z,-4.40
2019-01-22T02:35:22.136Z,-4.40
2019-01-22T02:37:57.018Z,-4.40
2019-01-22T02:40:31.258Z,-4.40
2019-01-22T02:43:08.690Z,-4.30
2019-01-22T02:45:48.856Z,-4.30
2019-01-22T02:48:38.583Z,-4.30
2019-01-22T02:51:18.889Z,-4.30
2019-01-22T02:53:53.264Z,-4.30
2019-01-22T02:56:30.690Z,-4.30
2019-01-22T02:59:04.679Z,-4.30
2019-01-22T03:01:45.147Z,-4.40
2019-01-22T03:04:19.211Z,-4.30
2019-01-22T03:07:13.349Z,-4.30
2019-01-22T03:09:53.687Z,-4.20
2019-01-22T03:12:34.083Z,-4.20
2019-01-22T03:15:38.904Z,-4.10
2019-01-22T03:18:21.996Z,-4.10
2019-01-22T03:21:11.398Z,-4.10
2019-01-22T03:23:46.518Z,-4.10
2019-01-22T03:26:34.864Z,-4.10
2019-01-22T03:29:24.573Z,-4.00
2019-01-22T03:32:03.217Z,-3.90
2019-01-22T03:34:49.493Z,-3.90
2019-01-22T03:37:32.923Z,-3.90
2019-01-22T03:40:04.492Z,-3.90
2019-01-22T03:42:36.749Z,-3.90
2019-01-22T03:45:08.261Z,-3.90
2019-01-22T03:47:48.946Z,-3.80
2019-01-22T03:50:20.439Z,-3.80
2019-01-22T03:52:54.719Z,-3.80
2019-01-22T03:55:38.034Z,-3.70
2019-01-22T03:58:07.019Z,-3.70
2019-01-22T04:00:35.531Z,-3.70
2019-01-22T04:03:04.432Z,-3.60
2019-01-22T04:05:32.875Z,-3.60
2019-01-22T04:08:01.371Z,-3.50
2019-01-22T04:10:30.070Z,-3.50
2019-01-22T04:12:58.524Z,-3.50
2019-01-22T04:15:30.083Z,-3.50
2019-01-22T04:18:01.699Z,-3.40
2019-01-22T04:20:30.220Z,-3.50
2019-01-22T04:22:59.286Z,-3.50
2019-01-22T04:25:42.556Z,-3.50
2019-01-22T04:28:30.809Z,-3.40
2019-01-22T04:31:08.275Z,-3.40
2019-01-22T04:34:11.643Z,-3.40
2019-01-22T04:37:01.167Z,-3.40
2019-01-22T04:39:41.595Z,-3.30
2019-01-22T04:42:16.082Z,-3.30
2019-01-22T04:44:47.591Z,-3.20
2019-01-22T04:47:35.954Z,-3.30
2019-01-22T04:50:22.075Z,-3.30
2019-01-22T04:53:13.078Z,-3.30
2019-01-22T04:55:50.215Z,-3.20
2019-01-22T04:58:24.435Z,-3.20
2019-01-22T05:01:07.648Z,-3.20
2019-01-22T05:03:42.504Z,-3.10
2019-01-22T05:06:16.796Z,-3.10
2019-01-22T05:09:00.068Z,-3.10
2019-01-22T05:11:43.483Z,-3.20
2019-01-22T05:14:32.274Z,-3.10
2019-01-22T05:17:03.774Z,-3.10
2019-01-22T05:19:38.119Z,-3.10
2019-01-22T05:22:21.604Z,-3.10
2019-01-22T05:25:01.721Z,-3.10
2019-01-22T05:27:35.876Z,-3.10
2019-01-22T05:30:25.442Z,-3.10
2019-01-22T05:33:02.313Z,-3.10
2019-01-22T05:35:56.408Z,-3.10
2019-01-22T05:38:30.778Z,-3.10
2019-01-22T05:41:20.387Z,-3.10
2019-01-22T05:43:57.685Z,-3.10
2019-01-22T05:46:43.836Z,-3.00
2019-01-22T05:49:34.830Z,-3.00
2019-01-22T05:52:39.470Z,-3.00
2019-01-22T05:55:25.728Z,-3.00
2019-01-22T05:57:59.894Z,-3.00
2019-01-22T06:00:46.223Z,-3.10
2019-01-22T06:03:18.006Z,-3.20
2019-01-22T06:06:12.263Z,-3.20
2019-01-22T06:08:55.719Z,-3.20
2019-01-22T06:11:51.429Z,-3.20
2019-01-22T06:14:28.458Z,-3.20
2019-01-22T06:17:21.138Z,-3.20
2019-01-22T06:20:27.205Z,-3.20
2019-01-22T06:23:15.087Z,-3.20
2019-01-22T06:26:01.603Z,-3.30
2019-01-22T06:28:52.746Z,-3.20
2019-01-22T06:31:42.268Z,-3.20
2019-01-22T06:34:25.982Z,-3.20
2019-01-22T06:37:03.488Z,-3.30
2019-01-22T06:39:35.022Z,-3.20
2019-01-22T06:42:21.555Z,-3.20
2019-01-22T06:44:58.651Z,-3.30
2019-01-22T06:47:38.967Z,-3.30
2019-01-22T06:50:18.931Z,-3.20
2019-01-22T06:52:52.992Z,-3.30
2019-01-22T06:55:27.556Z,-3.20
2019-01-22T06:58:17.967Z,-3.20
2019-01-22T07:00:55.254Z,-3.20
2019-01-22T07:03:32.836Z,-3.20
2019-01-22T07:06:12.419Z,-3.20
2019-01-22T07:09:11.033Z,-3.20
2019-01-22T07:11:48.058Z,-3.20
2019-01-22T07:14:34.298Z,-3.30
2019-01-22T07:17:14.059Z,-3.40
2019-01-22T07:19:57.366Z,-3.30
2019-01-22T07:22:43.744Z,-3.30
2019-01-22T07:25:20.711Z,-3.30
2019-01-22T07:27:54.930Z,-3.30
2019-01-22T07:30:43.000Z,-3.30
2019-01-22T07:33:34.299Z,-3.30
2019-01-22T07:36:22.487Z,-3.30
2019-01-22T07:38:54.013Z,-3.20
2019-01-22T07:41:31.603Z,-3.20
2019-01-22T07:44:09.180Z,-3.30
2019-01-22T07:46:57.341Z,-3.20
2019-01-22T07:49:46.969Z,-3.20
2019-01-22T07:52:34.859Z,-3.10
2019-01-22T07:55:21.416Z,-3.10
2019-01-22T07:58:05.003Z,-3.10
2019-01-22T08:00:45.104Z,-3.10
2019-01-22T08:04:00.453Z,-3.10
2019-01-22T08:06:49.127Z,-3.00
2019-01-22T08:09:40.477Z,-3.10
2019-01-22T08:12:26.465Z,-3.10
2019-01-22T08:15:06.764Z,-3.10
2019-01-22T08:17:56.226Z,-3.10
2019-01-22T08:20:42.678Z,-3.10
2019-01-22T08:23:14.164Z,-3.10
2019-01-22T08:25:54.695Z,-3.10
2019-01-22T08:28:40.759Z,-3.10
2019-01-22T08:31:15.154Z,-3.10
2019-01-22T08:33:54.927Z,-3.10
2019-01-22T08:37:00.632Z,-3.10
2019-01-22T08:39:38.089Z,-3.00
2019-01-22T08:42:23.973Z,-3.00
2019-01-22T08:45:19.229Z,-2.90
2019-01-22T08:48:19.398Z,-2.90
2019-01-22T08:51:09.666Z,-2.80
2019-01-22T08:54:04.879Z,-2.80
2019-01-22T08:56:48.389Z,-2.80
2019-01-22T08:59:19.928Z,-2.80
2019-01-22T09:01:54.027Z,-2.70
2019-01-22T09:04:37.275Z,-2.70
2019-01-22T09:07:17.255Z,-2.60
2019-01-22T09:09:57.632Z,-2.60
2019-01-22T09:12:31.781Z,-2.60
2019-01-22T09:15:14.873Z,-2.50
2019-01-22T09:17:46.373Z,-2.40
2019-01-22T09:20:17.876Z,-2.40
2019-01-22T09:23:01.291Z,-2.40
2019-01-22T09:25:32.810Z,-2.30
2019-01-22T09:28:28.235Z,-2.30
2019-01-22T09:30:59.759Z,-2.30
2019-01-22T09:33:53.691Z,-2.30
2019-01-22T09:36:25.221Z,-2.30
2019-01-22T09:38:53.636Z,-2.30
2019-01-22T09:41:22.086Z,-2.30
2019-01-22T09:43:50.513Z,-2.40
2019-01-22T09:46:18.918Z,-2.30
2019-01-22T09:48:47.393Z,-2.30
2019-01-22T09:51:15.804Z,-2.30
2019-01-22T09:53:47.497Z,-2.10
2019-01-22T09:56:16.039Z,-2.00
2019-01-22T09:58:44.474Z,-1.90
2019-01-22T10:01:13.042Z,-2.00
2019-01-22T10:03:41.467Z,-1.90
2019-01-22T10:06:09.882Z,-1.90
2019-01-22T10:08:41.308Z,-1.90
2019-01-22T10:11:09.823Z,-2.00
2019-01-22T10:13:38.648Z,-2.00
2019-01-22T10:16:07.255Z,-2.00
2019-01-22T10:18:35.726Z,-2.20
2019-01-22T10:21:04.594Z,-2.20
2019-01-22T10:23:33.024Z,-2.10
2019-01-22T10:26:01.467Z,-2.20
2019-01-22T10:28:29.936Z,-2.20
2019-01-22T10:30:58.343Z,-2.10
2019-01-22T10:33:26.759Z,-2.00
2019-01-22T10:35:55.200Z,-1.90
2019-01-22T10:38:23.647Z,-1.90
2019-01-22T10:40:52.075Z,-1.90
2019-01-22T10:43:20.490Z,-2.00
2019-01-22T10:45:48.943Z,-2.00
2019-01-22T10:48:17.385Z,-1.90
2019-01-22T10:50:45.863Z,-1.80
2019-01-22T10:53:14.304Z,-2.00
2019-01-22T10:55:42.754Z,-1.90
2019-01-22T10:58:11.171Z,-1.80
2019-01-22T11:00:39.636Z,-1.80
2019-01-22T11:03:08.924Z,-1.70
2019-01-22T11:05:38.875Z,-1.70
2019-01-22T11:08:07.490Z,-1.60
2019-01-22T11:10:36.174Z,-1.70
2019-01-22T11:13:05.365Z,-1.70
2019-01-22T11:15:33.780Z,-1.70
2019-01-22T11:18:02.362Z,-1.60
2019-01-22T11:20:31.835Z,-1.60
2019-01-22T11:23:00.272Z,-1.50
2019-01-22T11:25:31.472Z,-1.50
2019-01-22T11:27:59.885Z,-1.40
2019-01-22T11:30:29.152Z,-1.30
2019-01-22T11:32:57.603Z,-1.20
2019-01-22T11:35:26.714Z,-1.10
2019-01-22T11:37:55.121Z,-1.10
2019-01-22T11:40:43.579Z,-1.10
2019-01-22T11:43:11.987Z,-1.10
2019-01-22T11:45:40.434Z,-1.10
2019-01-22T11:48:09.410Z,-1.10
2019-01-22T11:50:38.158Z,-1.10
2019-01-22T11:53:06.723Z,-1.10
2019-01-22T11:55:38.334Z,-1.20
2019-01-22T11:58:06.823Z,-1.10
2019-01-22T12:00:38.298Z,-1.10
2019-01-22T12:03:06.782Z,-1.10
2019-01-22T12:05:35.260Z,-1.10
2019-01-22T12:08:04.109Z,-1.10
2019-01-22T12:10:35.901Z,-1.10
2019-01-22T12:13:04.683Z,-1.00
2019-01-22T12:15:33.089Z,-1.00
2019-01-22T12:18:01.539Z,-0.90
2019-01-22T12:20:33.325Z,-1.00
2019-01-22T12:23:01.795Z,-1.10
2019-01-22T12:25:30.245Z,-1.00
2019-01-22T12:27:58.993Z,-0.90
2019-01-22T12:30:30.857Z,-0.90
2019-01-22T12:32:59.423Z,-1.00
2019-01-22T12:35:28.184Z,-1.00
2019-01-22T12:37:56.786Z,-1.00
2019-01-22T12:40:27.600Z,-1.20
2019-01-22T12:42:56.055Z,-1.20
2019-01-22T12:45:27.055Z,-1.20
2019-01-22T12:47:55.499Z,-1.20
2019-01-22T12:50:26.339Z,-1.10
2019-01-22T12:52:54.792Z,-1.00
2019-01-22T12:55:23.196Z,-0.90
2019-01-22T12:57:51.654Z,-0.90
2019-01-22T13:00:31.915Z,-0.90
2019-01-22T13:03:00.742Z,-0.90
2019-01-22T13:05:40.752Z,-0.80
2019-01-22T13:08:09.440Z,-0.80
2019-01-22T13:10:37.951Z,-1.00
2019-01-22T13:13:06.732Z,-1.00
2019-01-22T13:15:35.453Z,-1.10
2019-01-22T13:18:04.043Z,-1.30
2019-01-22T13:20:32.462Z,-1.30
2019-01-22T13:23:00.970Z,-1.20
2019-01-22T13:25:29.406Z,-1.10
2019-01-22T13:27:57.867Z,-1.10
2019-01-22T13:30:30.604Z,-1.00
2019-01-22T13:32:59.800Z,-1.00
2019-01-22T13:35:28.201Z,-1.00
2019-01-22T13:37:56.651Z,-0.90
2019-01-22T13:40:25.066Z,-0.80
2019-01-22T13:42:53.604Z,-0.90
2019-01-22T13:45:27.819Z,-0.80
2019-01-22T13:47:57.119Z,-0.90
2019-01-22T13:50:26.501Z,-1.00
2019-01-22T13:52:54.947Z,-1.00
2019-01-22T13:55:31.882Z,-1.00
2019-01-22T13:58:00.687Z,-1.00
2019-01-22T14:00:30.267Z,-1.00
2019-01-22T14:03:00.841Z,-1.00
2019-01-22T14:05:29.714Z,-1.00
2019-01-22T14:07:58.796Z,-1.10
2019-01-22T14:10:27.223Z,-1.20
2019-01-22T14:12:59.002Z,-1.20
2019-01-22T14:15:30.138Z,-1.10
2019-01-22T14:17:58.570Z,-1.20
2019-01-22T14:20:27.055Z,-1.20
2019-01-22T14:22:55.503Z,-1.10
2019-01-22T14:25:24.220Z,-1.20
2019-01-22T14:27:52.643Z,-1.30
2019-01-22T14:30:36.031Z,-1.30
2019-01-22T14:33:05.316Z,-1.30
2019-01-22T14:35:33.735Z,-1.30
2019-01-22T14:38:02.187Z,-1.40
2019-01-22T14:40:30.604Z,-1.30
2019-01-22T14:43:03.485Z,-1.40
2019-01-22T14:45:32.344Z,-1.30
2019-01-22T14:48:00.756Z,-1.30
2019-01-22T14:50:33.697Z,-1.30
2019-01-22T14:53:02.192Z,-1.40
2019-01-22T14:55:30.655Z,-1.50
2019-01-22T14:57:59.203Z,-1.50
2019-01-22T15:00:29.376Z,-1.50
2019-01-22T15:02:59.338Z,-1.40
2019-01-22T15:05:27.986Z,-1.50
2019-01-22T15:07:56.783Z,-1.50
2019-01-22T15:10:25.223Z,-1.60
2019-01-22T15:12:56.402Z,-1.70
2019-01-22T15:15:24.900Z,-1.70
2019-01-22T15:17:53.329Z,-1.80
2019-01-22T15:20:26.646Z,-1.80
2019-01-22T15:22:55.097Z,-1.80
2019-01-22T15:25:23.751Z,-1.80
2019-01-22T15:27:52.266Z,-1.80
2019-01-22T15:30:23.826Z,-1.70
2019-01-22T15:32:52.295Z,-1.80
2019-01-22T15:35:20.711Z,-1.80
2019-01-22T15:37:49.212Z,-1.80
2019-01-22T15:40:26.351Z,-1.80
2019-01-22T15:42:54.827Z,-1.90
2019-01-22T15:45:24.145Z,-1.90
2019-01-22T15:47:52.616Z,-1.80
2019-01-22T15:50:23.062Z,-1.90
2019-01-22T15:52:51.652Z,-1.90
2019-01-22T15:55:26.447Z,-1.90
2019-01-22T15:57:55.005Z,-1.90
2019-01-22T16:00:26.167Z,-2.00
2019-01-22T16:02:54.714Z,-2.00
2019-01-22T16:05:23.234Z,-1.90
2019-01-22T16:07:51.647Z,-2.00
2019-01-22T16:10:20.335Z,-1.90
2019-01-22T16:12:49.103Z,-2.00
2019-01-22T16:15:24.378Z,-2.00
2019-01-22T16:17:54.278Z,-2.00
2019-01-22T16:20:27.300Z,-2.00
2019-01-22T16:22:56.088Z,-1.90
2019-01-22T16:25:25.089Z,-1.90
2019-01-22T16:27:53.914Z,-1.90
2019-01-22T16:30:24.181Z,-1.90
2019-01-22T16:32:52.794Z,-1.90
2019-01-22T16:35:23.146Z,-1.80
2019-01-22T16:37:51.691Z,-1.80
2019-01-22T16:40:20.131Z,-1.80
2019-01-22T16:42:49.204Z,-1.80
2019-01-22T16:45:25.391Z,-1.80
2019-01-22T16:47:53.805Z,-1.80
2019-01-22T16:50:22.225Z,-1.80
2019-01-22T16:52:50.670Z,-1.80
2019-01-22T16:55:22.316Z,-1.90
2019-01-22T16:57:50.760Z,-2.00
2019-01-22T17:00:25.488Z,-2.00
2019-01-22T17:02:54.562Z,-2.10
2019-01-22T17:05:23.442Z,-2.10
2019-01-22T17:07:51.890Z,-2.10
2019-01-22T17:10:21.089Z,-2.20
2019-01-22T17:12:50.116Z,-2.20
2019-01-22T17:15:18.595Z,-2.20
2019-01-22T17:17:47.122Z,-2.30
2019-01-22T17:20:24.346Z,-2.30
2019-01-22T17:22:52.934Z,-2.30
2019-01-22T17:25:21.346Z,-2.30
2019-01-22T17:27:49.803Z,-2.30
2019-01-22T17:30:20.471Z,-2.30
2019-01-22T17:32:59.537Z,-2.30
2019-01-22T17:35:28.222Z,-2.30
2019-01-22T17:37:56.687Z,-2.30
2019-01-22T17:40:25.424Z,-2.30
2019-01-22T17:42:53.852Z,-2.40
2019-01-22T17:45:22.277Z,-2.40
2019-01-22T17:47:50.733Z,-2.40
2019-01-22T17:50:19.423Z,-2.40
2019-01-22T17:52:47.897Z,-2.40
2019-01-22T17:55:16.308Z,-2.30
2019-01-22T17:57:44.755Z,-2.30
2019-01-22T18:00:27.934Z,-2.30
2019-01-22T18:02:56.353Z,-2.30
2019-01-22T18:05:24.878Z,-2.20
2019-01-22T18:07:53.303Z,-2.20
2019-01-22T18:10:26.131Z,-2.20
2019-01-22T18:12:54.581Z,-2.20
2019-01-22T18:15:23.035Z,-2.20
2019-01-22T18:17:51.457Z,-2.20
2019-01-22T18:20:25.687Z,-2.10
2019-01-22T18:22:54.123Z,-2.10
2019-01-22T18:25:22.581Z,-2.10
2019-01-22T18:27:51.002Z,-2.10
2019-01-22T18:30:22.126Z,-2.10
2019-01-22T18:32:51.037Z,-2.10
2019-01-22T18:35:22.298Z,-2.10
2019-01-22T18:37:50.751Z,-2.10
2019-01-22T18:40:19.211Z,-2.10
2019-01-22T18:42:47.631Z,-2.10
2019-01-22T18:45:17.991Z,-2.10
2019-01-22T18:47:46.438Z,-2.10
2019-01-22T18:50:20.412Z,-2.20
2019-01-22T18:52:48.903Z,-2.10
2019-01-22T18:55:17.359Z,-2.20
2019-01-22T18:57:45.770Z,-2.20
2019-01-22T19:00:24.381Z,-2.20
2019-01-22T19:02:53.326Z,-2.20
2019-01-22T19:05:21.924Z,-2.20
2019-01-22T19:07:50.740Z,-2.10
2019-01-22T19:10:24.844Z,-2.10
2019-01-22T19:12:53.367Z,-2.10
2019-01-22T19:15:22.906Z,-2.10
2019-01-22T19:17:56.119Z,-2.10
2019-01-22T19:20:24.607Z,-2.00
2019-01-22T19:22:53.204Z,-2.00
2019-01-22T19:25:24.369Z,-2.00
2019-01-22T19:27:53.030Z,-2.00
2019-01-22T19:30:23.771Z,-2.00
2019-01-22T19:32:52.199Z,-2.10
2019-01-22T19:35:20.849Z,-2.10
2019-01-22T19:37:49.556Z,-2.10
2019-01-22T19:40:19.323Z,-2.10
2019-01-22T19:42:48.347Z,-2.10
2019-01-22T19:45:22.547Z,-2.10
2019-01-22T19:47:51.022Z,-2.10
2019-01-22T19:50:19.448Z,-2.10
2019-01-22T19:52:47.875Z,-2.00
2019-01-22T19:55:17.041Z,-2.10
2019-01-22T19:57:45.509Z,-2.10
2019-01-22T20:00:20.624Z,-2.00
2019-01-22T20:02:49.107Z,-2.00
2019-01-22T20:05:18.562Z,-2.10
2019-01-22T20:07:47.296Z,-2.10
2019-01-22T20:10:17.272Z,-2.10
2019-01-22T20:12:45.714Z,-2.10
2019-01-22T20:15:17.287Z,-2.10
2019-01-22T20:17:45.753Z,-2.20
2019-01-22T20:20:18.539Z,-2.20
2019-01-22T20:22:47.823Z,-2.20
2019-01-22T20:25:17.077Z,-2.30
2019-01-22T20:27:48.225Z,-2.30
2019-01-22T20:30:27.325Z,-2.20
2019-01-22T20:32:55.860Z,-2.20
2019-01-22T20:35:24.473Z,-2.20
2019-01-22T20:37:52.897Z,-2.20
2019-01-22T20:40:21.338Z,-2.20
2019-01-22T20:42:49.781Z,-2.20
2019-01-22T20:45:21.235Z,-2.20
2019-01-22T20:47:49.675Z,-2.10
2019-01-22T20:50:19.473Z,-2.10
2019-01-22T20:52:48.348Z,-2.10
2019-01-22T20:55:19.539Z,-2.10
2019-01-22T20:57:54.484Z,-2.10
2019-01-22T21:00:23.695Z,-2.10
2019-01-22T21:02:52.763Z,-2.10
2019-01-22T21:05:26.630Z,-2.20
2019-01-22T21:07:55.619Z,-2.20
2019-01-22T21:10:28.922Z,-2.30
2019-01-22T21:12:57.637Z,-2.30
2019-01-22T21:15:26.883Z,-2.30
2019-01-22T21:17:55.387Z,-2.30
2019-01-22T21:20:23.837Z,-2.30
2019-01-22T21:22:52.754Z,-2.30
2019-01-22T21:25:23.227Z,-2.30
2019-01-22T21:27:52.210Z,-2.20
2019-01-22T21:30:31.966Z,-2.20
2019-01-22T21:33:00.403Z,-2.20
2019-01-22T21:35:32.908Z,-2.20
2019-01-22T21:38:01.368Z,-2.20
2019-01-22T21:40:29.826Z,-2.20
2019-01-22T21:42:58.407Z,-2.20
2019-01-22T21:45:28.887Z,-2.20
2019-01-22T21:47:57.345Z,-2.20
2019-01-22T21:50:25.994Z,-2.20
2019-01-22T21:52:54.702Z,-2.20
2019-01-22T21:55:24.283Z,-2.20
2019-01-22T21:57:53.004Z,-2.20
2019-01-22T22:00:26.284Z,-2.20
2019-01-22T22:02:54.799Z,-2.20
2019-01-22T22:05:26.559Z,-2.20
2019-01-22T22:07:55.295Z,-2.20
2019-01-22T22:10:24.294Z,-2.20
2019-01-22T22:12:52.707Z,-2.10
2019-01-22T22:15:23.607Z,-2.10
2019-01-22T22:17:52.279Z,-2.20
2019-01-22T22:20:21.083Z,-2.20
2019-01-22T22:22:49.539Z,-2.20
2019-01-22T22:25:20.454Z,-2.20
2019-01-22T22:27:48.919Z,-2.30
2019-01-22T22:30:23.331Z,-2.30
2019-01-22T22:32:51.778Z,-2.30
2019-01-22T22:35:20.378Z,-2.40
2019-01-22T22:37:48.802Z,-2.30
2019-01-22T22:40:21.785Z,-2.30
2019-01-22T22:42:50.412Z,-2.40
2019-01-22T22:45:20.754Z,-2.30
2019-01-22T22:47:49.206Z,-2.30
2019-01-22T22:50:32.144Z,-2.30
2019-01-22T22:53:00.594Z,-2.40
2019-01-22T22:55:29.011Z,-2.40
2019-01-22T22:57:57.453Z,-2.40
2019-01-22T23:00:38.279Z,-2.40
2019-01-22T23:03:07.583Z,-2.50
2019-01-22T23:05:37.494Z,-2.60
2019-01-22T23:08:06.362Z,-2.60
2019-01-22T23:10:35.051Z,-2.60
2019-01-22T23:13:03.600Z,-2.60
2019-01-22T23:15:32.016Z,-2.50
2019-01-22T23:18:00.426Z,-2.50
2019-01-22T23:20:28.857Z,-2.50
2019-01-22T23:22:57.285Z,-2.40
2019-01-22T23:25:25.727Z,-2.40
2019-01-22T23:27:54.159Z,-2.40
2019-01-22T23:30:22.830Z,-2.30
2019-01-22T23:32:51.242Z,-2.40
2019-01-22T23:35:19.825Z,-2.40
2019-01-22T23:37:48.235Z,-2.40
2019-01-22T23:40:17.327Z,-2.50
2019-01-22T23:43:05.111Z,-2.40
2019-01-22T23:45:33.618Z,-2.50
2019-01-22T23:48:02.056Z,-2.40
2019-01-22T23:50:30.461Z,-2.50
2019-01-22T23:52:58.906Z,-2.50
2019-01-22T23:55:27.351Z,-2.50
2019-01-22T23:57:55.758Z,-2.40
